PRINT OUT SECTION, show ยป

TAF EPBY 061730Z 0618/0718 26005KT 8000 BKN010
TEMPO 0618/0712 4000 -RA BR BKN005
PROB30 TEMPO 0618/0706 2000 -RADZ BR OVC002
BECMG 0712/0715 9999 BKN014=

TAF EPBY 062330Z 0700/0724 26005KT 8000 BKN010
TEMPO 0700/0715 4000 -RA BR BKN005
PROB30 TEMPO 0700/0706 2000 -RADZ BR OVC002=

TAF EPGD 061730Z 0618/0718 23006KT 3000 BR OVC003
TEMPO 0620/0709 1500 -RASN BR
PROB40 TEMPO 0622/0706 0500 FG
BECMG 0708/0711 9999 BKN007
PROB40 TEMPO 0711/0714 BKN010
TEMPO 0714/0718 1000 SHSN BKN004 BKN010CB=

TAF EPGD 062330Z 0700/0724 23006KT 5000 BR OVC006
TEMPO 0700/0709 2000 -RASN BR BKN003
PROB30 TEMPO 0700/0706 0600 FG
BECMG 0709/0712 9999 BKN015
TEMPO 0714/0724 1000 SHSN BKN004 BKN010CB=

TAF EPKK 062030Z 0621/0721 25010KT 5000 -SNRA BR BKN009
TEMPO 0621/0707 1300 SNRA BR BKN004
BECMG 0707/0710 9999 BKN012
TEMPO 0707/0717 25015G25KT 2000 SHSNRA BKN004 BKN009CB=

TAF EPKK 062330Z 0700/0724 25010KT 5000 -SNRA BR OVC008
TEMPO 0700/0707 1300 SNRA BR BKN004
BECMG 0707/0710 9999 BKN014
TEMPO 0709/0717 25015G25KT 2000 SHSNRA BKN004 BKN009CB=

TAF EPKT 061730Z 0618/0718 25008KT 4000 -RASN BR BKN005
TEMPO 0618/0706 1000 SN OVC002
PROB40 TEMPO 0618/0706 0300 +SN OVC001
BECMG 0706/0709 9999 BKN012
TEMPO 0706/0718 25015G25KT 1200 SHSN BKN004 BKN007CB=

TAF EPKT 062330Z 0700/0724 25008KT 3500 -SN BR OVC003
TEMPO 0700/0706 1300 SN BR
BECMG 0706/0708 9999 BKN012
TEMPO 0708/0716 25015G25KT 1200 SHSN BKN004 BKN007CB=

TAF EPLB 061730Z 0618/0718 13010KT 4000 -RA BKN005
TEMPO 0618/0622 1200 RADZ BR BKN003
BECMG 0621/0624 24012KT
TEMPO 0622/0712 1500 RASN BR BKN003
BECMG 0712/0715 8000 BKN010=

TAF EPLB 062330Z 0700/0724 24008KT 4000 -RA BR BKN005
TEMPO 0700/0712 1500 RASN BR BKN003
BECMG 0712/0715 8000 BKN010
PROB40 0718/0724 SCT020=

TAF EPLL 061730Z 0618/0718 27010KT 3000 -RA BR BKN005
PROB40 0618/0708 1200 SNRA BR OVC003
BECMG 0708/0711 7000 BKN012
PROB40 TEMPO 0711/0718 27015G25KT 1000 SHSNRA BKN004 BKN012CB=

TAF EPLL 062330Z 0700/0724 27010KT 3000 -RA BR BKN005
PROB40 TEMPO 0700/0708 1200 RASN BR OVC002
BECMG 0708/0711 7000 BKN012
PROB40 TEMPO 0711/0719 27015G25KT 1000 SHSNRA BKN004 BKN012CB=

TAF EPMO 061730Z 0618/0718 VRB04KT 4000 -RA BR BKN005
TEMPO 0618/0620 1500 RADZ BR OVC003
BECMG 0619/0622 28010KT
TEMPO 0620/0709 1000 RASN BR OVC003
BECMG 0709/0712 7000 BKN012
PROB40 TEMPO 0713/0718 27015G25KT 1000 SHSNRA BKN004 BKN012CB=

TAF EPMO 062330Z 0700/0724 24006KT 4000 -RA BR BKN006
TEMPO 0700/0709 1000 RASN BR OVC003
BECMG 0709/0712 7000 BKN012
PROB40 TEMPO 0713/0719 27015G25KT 1000 SHSNRA BKN004 BKN012CB=

TAF EPPO 061730Z 0618/0718 27008KT 6000 OVC004
TEMPO 0618/0623 4000 -DZ BR
TEMPO 0623/0706 2500 RASN BR
BECMG 0706/0709 BKN015
TEMPO 0709/0718 27016G28KT 2000 SHSNRA BKN004 BKN013CB=

TAF EPPO 062330Z 0700/0724 27008KT 6000 OVC004
TEMPO 0700/0706 2000 RASN BR OVC001
BECMG 0706/0709 BKN015
TEMPO 0709/0718 27016G28KT 2000 SHSNRA BKN004 BKN013CB=

TAF EPRZ 061730Z 0618/0718 10010KT 3000 -RASN BR OVC005
BECMG 0618/0620 25008KT
TEMPO 0618/0707 1000 SNRA BR OVC002
BECMG 0707/0710 9999 BKN012
TEMPO 0707/0718 23015G25KT 2000 SHSNRA BKN004 BKN007CB
PROB40 TEMPO 0709/0715 0800 +SHSN BKN004CB=

TAF EPRZ 062330Z 0700/0724 25010KT 5000 -RA BR OVC007
BECMG 0707/0710 9999 BKN013
TEMPO 0707/0717 23015G25KT 2000 SHSNRA BKN004 BKN010CB
BECMG 0717/0720 SCT020=

TAF EPSC 061730Z 0618/0718 22003KT 3000 -RA BR OVC002
TEMPO 0618/0706 1500 -DZ BR
PROB40 TEMPO 0618/0706 1000 DZRA BR
BECMG 0706/0709 7000 BKN012
TEMPO 0706/0718 1000 SHSN BKN005 BKN012CB
BECMG 0709/0711 27013KT
PROB40 TEMPO 0709/0718 26015G25KT=

TAF EPSC 062330Z 0700/0724 26008KT 7000 OVC006
TEMPO 0700/0712 2000 -RASN BR BKN002
PROB30 TEMPO 0703/0710 0800 FG
BECMG 0711/0714 7000 BKN012
PROB40 0714/0717 BKN018
PROB40 TEMPO 0714/0722 27015G25KT=

TAF EPWA 062030Z 0621/0721 27006KT 4000 -RA BR BKN005
TEMPO 0621/0709 1500 RASN BR OVC003
BECMG 0709/0712 7000 SCT012 BKN017
PROB40 TEMPO 0714/0718 27015G25KT 1500 SHSNRA BKN004 BKN012CB=

TAF EPWA 062330Z 0700/0724 27006KT 4000 -RA BR BKN007
TEMPO 0700/0709 1500 RASN BR OVC003
BECMG 0709/0712 7000 SCT012 BKN017
PROB40 TEMPO 0714/0719 27015G25KT 1500 SHSNRA BKN004 BKN012CB=

TAF EPWR 062030Z 0621/0721 27007KT 9999 BKN008 OVC012
TEMPO 0621/0623 4000 -RADZ BR BKN004
TEMPO 0623/0706 2500 -RASN BR BKN003
BECMG 0707/0710 BKN020
TEMPO 0710/0718 27016G26KT 3000 SHRASN BKN008 BKN014CB=

TAF EPWR 062330Z 0700/0724 27007KT 9999 BKN008 OVC012
TEMPO 0700/0706 2500 -RASN BR BKN003
BECMG 0707/0710 BKN020
TEMPO 0710/0718 27016G26KT 3000 SHRASN BKN008 BKN014CB=